Time;durP1;ratioP1;P1;durP2;ratioP2;P2;SDS_P1;SDS_P2;PMS_P1;PMS_P2;Temp;Humidity;BMP_temperature;BMP_pressure;BME280_temperature;BME280_humidity;BME280_pressure;Samples;Min_cycle;Max_cycle;Signal;HPM_P1;HPM_P2
2021/10/16 00:01:48;;;;;;;0.40;0.40;;;;;;;;;;5068914;28;20627;-67
2021/10/16 00:04:14;;;;;;;0.40;0.40;;;;;;;;;;5070596;28;20456;-67
2021/10/16 00:06:40;;;;;;;0.37;0.37;;;;;;;;;;5077402;22;20481;-64
2021/10/16 00:09:06;;;;;;;0.40;0.40;;;;;;;;;;5067032;28;20842;-63
2021/10/16 00:11:32;;;;;;;0.40;0.40;;;;;;;;;;5070572;28;20412;-66
2021/10/16 00:13:58;;;;;;;0.40;0.40;;;;;;;;;;5070326;28;20172;-66
2021/10/16 00:16:24;;;;;;;0.40;0.40;;;;;;;;;;5062571;28;20236;-65
2021/10/16 00:18:50;;;;;;;0.40;0.40;;;;;;;;;;5059751;28;20512;-64
2021/10/16 00:21:16;;;;;;;0.40;0.40;;;;;;;;;;5060171;28;20457;-65
2021/10/16 00:23:42;;;;;;;0.30;0.30;;;;;;;;;;5056613;28;20508;-67
2021/10/16 00:26:08;;;;;;;0.40;0.40;;;;;;;;;;5040088;28;20502;-67
2021/10/16 00:28:34;;;;;;;0.40;0.40;;;;;;;;;;5037149;28;20776;-66
2021/10/16 00:31:00;;;;;;;0.40;0.40;;;;;;;;;;5046394;28;20410;-65
2021/10/16 00:33:26;;;;;;;0.40;0.40;;;;;;;;;;5035559;28;20210;-64
2021/10/16 00:35:53;;;;;;;0.40;0.40;;;;;;;;;;5031808;28;20447;-65
2021/10/16 00:38:19;;;;;;;0.40;0.40;;;;;;;;;;5030535;28;20197;-67
2021/10/16 00:40:45;;;;;;;0.40;0.40;;;;;;;;;;5031027;28;20250;-67
2021/10/16 00:43:11;;;;;;;0.40;0.40;;;;;;;;;;5030835;28;20588;-66
2021/10/16 00:45:37;;;;;;;0.40;0.40;;;;;;;;;;5031921;28;20911;-67
2021/10/16 00:48:03;;;;;;;0.40;0.40;;;;;;;;;;5031558;28;20200;-66
2021/10/16 00:50:29;;;;;;;0.50;0.50;;;;;;;;;;5035278;28;20412;-64
2021/10/16 00:52:55;;;;;;;0.40;0.40;;;;;;;;;;5035379;28;20181;-65
2021/10/16 00:55:22;;;;;;;0.40;0.40;;;;;;;;;;5045622;28;20446;-66
2021/10/16 00:57:48;;;;;;;0.40;0.40;;;;;;;;;;5047820;28;20180;-66
2021/10/16 01:00:15;;;;;;;0.40;0.40;;;;;;;;;;5040552;28;20176;-65
2021/10/16 01:02:41;;;;;;;0.50;0.50;;;;;;;;;;5034181;28;20236;-62
2021/10/16 01:05:08;;;;;;;0.40;0.40;;;;;;;;;;5035235;28;20219;-66
2021/10/16 01:07:36;;;;;;;0.40;0.40;;;;;;;;;;5034277;28;20180;-66
2021/10/16 01:10:02;;;;;;;0.40;0.40;;;;;;;;;;5034901;28;20196;-63
2021/10/16 01:12:30;;;;;;;0.40;0.40;;;;;;;;;;5035107;28;20181;-67
2021/10/16 01:14:57;;;;;;;0.40;0.40;;;;;;;;;;5033992;28;20169;-66
2021/10/16 01:17:23;;;;;;;0.40;0.40;;;;;;;;;;5040738;28;20178;-66
2021/10/16 01:19:53;;;;;;;0.40;0.40;;;;;;;;;;5051949;28;20180;-66
2021/10/16 01:22:19;;;;;;;0.40;0.40;;;;;;;;;;5047392;28;20247;-66
2021/10/16 01:24:45;;;;;;;0.40;0.40;;;;;;;;;;5053638;28;20196;-66
2021/10/16 01:27:12;;;;;;;0.40;0.40;;;;;;;;;;5048337;28;20523;-66
2021/10/16 01:29:38;;;;;;;0.40;0.40;;;;;;;;;;5033802;28;20173;-66
2021/10/16 01:32:04;;;;;;;0.50;0.50;;;;;;;;;;5034515;28;20341;-66
2021/10/16 01:34:30;;;;;;;0.50;0.50;;;;;;;;;;5033570;28;20229;-66
2021/10/16 01:36:56;;;;;;;0.40;0.40;;;;;;;;;;5034762;28;20233;-65
2021/10/16 01:39:23;;;;;;;0.40;0.40;;;;;;;;;;5033645;28;20177;-64
2021/10/16 01:41:49;;;;;;;0.40;0.40;;;;;;;;;;5034288;28;20274;-67
2021/10/16 01:44:16;;;;;;;0.40;0.40;;;;;;;;;;5032721;28;20231;-67
2021/10/16 01:46:42;;;;;;;0.40;0.40;;;;;;;;;;5034389;28;20204;-64
2021/10/16 01:49:12;;;;;;;0.40;0.40;;;;;;;;;;5048030;28;20184;-64
2021/10/16 01:51:39;;;;;;;0.30;0.30;;;;;;;;;;5051249;28;20690;-66
2021/10/16 01:54:05;;;;;;;0.40;0.40;;;;;;;;;;5053141;28;20172;-64
2021/10/16 01:56:31;;;;;;;0.43;0.43;;;;;;;;;;5051412;28;20196;-66
2021/10/16 01:58:57;;;;;;;0.40;0.40;;;;;;;;;;5051818;28;20266;-65
2021/10/16 02:01:23;;;;;;;0.40;0.40;;;;;;;;;;5051040;28;20210;-65
2021/10/16 02:03:49;;;;;;;0.30;0.30;;;;;;;;;;5053068;28;20411;-65
2021/10/16 02:06:15;;;;;;;0.40;0.40;;;;;;;;;;5051040;28;20458;-64
2021/10/16 02:08:41;;;;;;;0.40;0.40;;;;;;;;;;5045229;28;20511;-64
2021/10/16 02:11:07;;;;;;;0.40;0.40;;;;;;;;;;5033724;28;20431;-66
2021/10/16 02:13:33;;;;;;;0.40;0.40;;;;;;;;;;5032823;28;20766;-66
2021/10/16 02:15:59;;;;;;;0.30;0.30;;;;;;;;;;5033813;28;20447;-64
2021/10/16 02:18:24;;;;;;;0.40;0.40;;;;;;;;;;5032967;28;20497;-65
2021/10/16 02:20:50;;;;;;;0.30;0.30;;;;;;;;;;5042863;28;20430;-66
2021/10/16 02:23:16;;;;;;;0.33;0.33;;;;;;;;;;5052634;28;20449;-63
2021/10/16 02:25:42;;;;;;;0.40;0.40;;;;;;;;;;5044557;28;20608;-64
2021/10/16 02:28:08;;;;;;;0.40;0.40;;;;;;;;;;5054098;28;20458;-64
2021/10/16 02:30:34;;;;;;;0.40;0.40;;;;;;;;;;5032308;28;20416;-65
2021/10/16 02:33:00;;;;;;;0.40;0.40;;;;;;;;;;5033524;28;20439;-64
2021/10/16 02:35:26;;;;;;;0.30;0.30;;;;;;;;;;5032451;28;20427;-65
2021/10/16 02:37:52;;;;;;;0.40;0.40;;;;;;;;;;5033043;28;20430;-66
2021/10/16 02:40:18;;;;;;;0.30;0.30;;;;;;;;;;5032333;28;20434;-66
2021/10/16 02:42:44;;;;;;;0.40;0.40;;;;;;;;;;5033154;28;20517;-64
2021/10/16 02:45:11;;;;;;;0.40;0.40;;;;;;;;;;5032275;28;20431;-66
2021/10/16 02:47:37;;;;;;;0.40;0.40;;;;;;;;;;5032655;28;20494;-66
2021/10/16 02:50:03;;;;;;;0.30;0.30;;;;;;;;;;5037273;28;20314;-62
2021/10/16 02:52:29;;;;;;;0.30;0.30;;;;;;;;;;5039380;28;20423;-65
2021/10/16 02:54:55;;;;;;;0.40;0.40;;;;;;;;;;5055410;28;20184;-66
2021/10/16 02:57:20;;;;;;;0.30;0.30;;;;;;;;;;5058019;28;20511;-65
2021/10/16 02:59:46;;;;;;;0.30;0.30;;;;;;;;;;5036116;28;20424;-67
2021/10/16 03:02:12;;;;;;;0.40;0.40;;;;;;;;;;5031891;28;20462;-67
2021/10/16 03:04:38;;;;;;;0.37;0.37;;;;;;;;;;5047653;28;20425;-67
2021/10/16 03:07:04;;;;;;;0.40;0.40;;;;;;;;;;5047118;28;20487;-66
2021/10/16 03:09:30;;;;;;;0.40;0.40;;;;;;;;;;5041850;28;20929;-66
2021/10/16 03:11:56;;;;;;;0.40;0.40;;;;;;;;;;5063880;28;20911;-66
2021/10/16 03:14:22;;;;;;;0.40;0.40;;;;;;;;;;5043516;28;20436;-66
2021/10/16 03:16:50;;;;;;;0.40;0.40;;;;;;;;;;5037126;28;20538;-66
2021/10/16 03:19:16;;;;;;;0.40;0.40;;;;;;;;;;5032512;28;20435;-67
2021/10/16 03:21:41;;;;;;;0.40;0.40;;;;;;;;;;5032360;28;20270;-62
2021/10/16 03:24:07;;;;;;;0.40;0.40;;;;;;;;;;5031677;28;20455;-67
2021/10/16 03:26:33;;;;;;;0.40;0.40;;;;;;;;;;5031792;28;20435;-64
2021/10/16 03:28:59;;;;;;;0.40;0.40;;;;;;;;;;5036600;28;20424;-67
2021/10/16 03:31:25;;;;;;;0.40;0.40;;;;;;;;;;5056095;28;20424;-67
2021/10/16 03:33:51;;;;;;;0.40;0.40;;;;;;;;;;5032913;28;20185;-66
2021/10/16 03:36:17;;;;;;;0.30;0.30;;;;;;;;;;5040499;28;20461;-60
2021/10/16 03:38:43;;;;;;;0.32;0.32;;;;;;;;;;5033594;28;20673;-66
2021/10/16 03:41:09;;;;;;;0.40;0.40;;;;;;;;;;5051163;28;20671;-64
2021/10/16 03:43:35;;;;;;;0.33;0.33;;;;;;;;;;5037414;28;20423;-65
2021/10/16 03:46:01;;;;;;;0.40;0.40;;;;;;;;;;5031330;28;20423;-64
2021/10/16 03:48:27;;;;;;;0.40;0.40;;;;;;;;;;5040420;28;20180;-66
2021/10/16 03:50:53;;;;;;;0.40;0.40;;;;;;;;;;5050874;28;20414;-65
2021/10/16 03:53:19;;;;;;;0.40;0.40;;;;;;;;;;5046611;28;20414;-64
2021/10/16 03:55:45;;;;;;;0.40;0.40;;;;;;;;;;5037406;28;20451;-65
2021/10/16 03:58:11;;;;;;;0.30;0.30;;;;;;;;;;5031146;28;20431;-66
2021/10/16 04:00:37;;;;;;;0.40;0.40;;;;;;;;;;5044326;28;20793;-66
2021/10/16 04:03:05;;;;;;;0.40;0.40;;;;;;;;;;5050803;28;20286;-66
2021/10/16 04:05:31;;;;;;;0.40;0.40;;;;;;;;;;5045393;28;20450;-64
2021/10/16 04:07:58;;;;;;;0.40;0.40;;;;;;;;;;5052530;28;20649;-61
2021/10/16 04:10:24;;;;;;;0.40;0.40;;;;;;;;;;5038193;28;20578;-66
2021/10/16 04:12:49;;;;;;;0.40;0.40;;;;;;;;;;5064626;28;20258;-67
2021/10/16 04:15:15;;;;;;;0.40;0.40;;;;;;;;;;5055548;28;20286;-66
2021/10/16 04:17:44;;;;;;;0.30;0.30;;;;;;;;;;5051017;28;20417;-66
2021/10/16 04:20:11;;;;;;;0.40;0.40;;;;;;;;;;5039482;28;20463;-65
2021/10/16 04:22:37;;;;;;;0.40;0.40;;;;;;;;;;5033391;28;20197;-67
2021/10/16 04:25:03;;;;;;;0.40;0.40;;;;;;;;;;5044566;28;20257;-66
2021/10/16 04:27:29;;;;;;;0.30;0.30;;;;;;;;;;5053165;28;20426;-66
2021/10/16 04:29:55;;;;;;;0.40;0.40;;;;;;;;;;5053988;28;20672;-66
2021/10/16 04:32:21;;;;;;;0.40;0.40;;;;;;;;;;5049295;28;20515;-66
2021/10/16 04:34:47;;;;;;;0.40;0.40;;;;;;;;;;5054601;28;20480;-66
2021/10/16 04:37:15;;;;;;;0.40;0.40;;;;;;;;;;5053017;28;20454;-65
2021/10/16 04:39:41;;;;;;;0.40;0.40;;;;;;;;;;5052656;28;20430;-63
2021/10/16 04:42:07;;;;;;;0.40;0.40;;;;;;;;;;5049689;28;20671;-65
2021/10/16 04:44:33;;;;;;;0.40;0.40;;;;;;;;;;5040819;28;20187;-66
2021/10/16 04:46:59;;;;;;;0.40;0.40;;;;;;;;;;5039551;28;20199;-66
2021/10/16 04:49:25;;;;;;;0.40;0.40;;;;;;;;;;5046344;28;20175;-64
2021/10/16 04:51:51;;;;;;;0.40;0.40;;;;;;;;;;5047189;28;20427;-65
2021/10/16 04:54:17;;;;;;;0.40;0.40;;;;;;;;;;5059335;28;20506;-66
2021/10/16 04:56:43;;;;;;;0.30;0.30;;;;;;;;;;5046034;28;20941;-63
2021/10/16 04:59:09;;;;;;;0.37;0.37;;;;;;;;;;5034483;28;20453;-62
2021/10/16 05:01:35;;;;;;;0.40;0.40;;;;;;;;;;5034793;28;20834;-66
2021/10/16 05:04:01;;;;;;;0.40;0.40;;;;;;;;;;5034319;28;20419;-63
2021/10/16 05:06:31;;;;;;;0.40;0.40;;;;;;;;;;5036152;28;20516;-60
2021/10/16 05:08:57;;;;;;;0.30;0.30;;;;;;;;;;5050431;28;20414;-67
2021/10/16 05:11:23;;;;;;;0.40;0.40;;;;;;;;;;5042697;28;20550;-67
2021/10/16 05:13:49;;;;;;;0.40;0.40;;;;;;;;;;5055879;28;20941;-65
2021/10/16 05:16:15;;;;;;;0.30;0.30;;;;;;;;;;5047188;28;20461;-67
2021/10/16 05:18:41;;;;;;;0.40;0.40;;;;;;;;;;5049063;28;20663;-66
2021/10/16 05:21:07;;;;;;;0.40;0.40;;;;;;;;;;5033776;28;20176;-66
2021/10/16 05:23:33;;;;;;;0.40;0.40;;;;;;;;;;5035123;28;20450;-67
2021/10/16 05:25:59;;;;;;;0.40;0.40;;;;;;;;;;5048227;28;20438;-65
2021/10/16 05:28:25;;;;;;;0.40;0.40;;;;;;;;;;5036621;28;20961;-65
2021/10/16 05:30:51;;;;;;;0.40;0.40;;;;;;;;;;5033630;28;20560;-67
2021/10/16 05:33:17;;;;;;;0.30;0.30;;;;;;;;;;5039969;28;20217;-66
2021/10/16 05:35:44;;;;;;;0.40;0.40;;;;;;;;;;5052974;28;20487;-66
2021/10/16 05:38:10;;;;;;;0.30;0.30;;;;;;;;;;5052643;28;20824;-64
2021/10/16 05:40:36;;;;;;;0.30;0.30;;;;;;;;;;5039454;28;20175;-64
2021/10/16 05:43:02;;;;;;;0.40;0.40;;;;;;;;;;5057530;28;20681;-64
2021/10/16 05:45:28;;;;;;;0.40;0.40;;;;;;;;;;5071261;28;20475;-64
2021/10/16 05:47:54;;;;;;;0.40;0.40;;;;;;;;;;5069010;28;20493;-64
2021/10/16 05:50:20;;;;;;;0.40;0.40;;;;;;;;;;5060941;28;20442;-64
2021/10/16 05:52:46;;;;;;;0.40;0.40;;;;;;;;;;5045748;28;21054;-64
2021/10/16 05:55:12;;;;;;;0.40;0.40;;;;;;;;;;5041421;28;20477;-64
2021/10/16 05:57:38;;;;;;;0.40;0.40;;;;;;;;;;5054638;28;20496;-64
2021/10/16 06:00:04;;;;;;;0.40;0.40;;;;;;;;;;5037182;28;20426;-65
2021/10/16 06:02:30;;;;;;;0.35;0.35;;;;;;;;;;5052949;28;20691;-63
2021/10/16 06:04:56;;;;;;;0.40;0.40;;;;;;;;;;5032796;28;20180;-63
2021/10/16 06:07:22;;;;;;;0.40;0.40;;;;;;;;;;5032970;28;20431;-62
2021/10/16 06:09:48;;;;;;;0.40;0.40;;;;;;;;;;5066214;23;20756;-65
2021/10/16 06:12:14;;;;;;;0.43;0.43;;;;;;;;;;5063545;28;20991;-63
2021/10/16 06:14:40;;;;;;;0.40;0.40;;;;;;;;;;5072097;28;20421;-66
2021/10/16 06:17:06;;;;;;;0.40;0.40;;;;;;;;;;5072011;28;20646;-66
2021/10/16 06:19:32;;;;;;;0.30;0.30;;;;;;;;;;5063257;28;20491;-65
2021/10/16 06:21:58;;;;;;;0.40;0.40;;;;;;;;;;5067944;28;20476;-65
2021/10/16 06:24:24;;;;;;;0.40;0.40;;;;;;;;;;5071225;28;20182;-63
2021/10/16 06:26:50;;;;;;;0.40;0.40;;;;;;;;;;5072158;28;20179;-65
2021/10/16 06:29:16;;;;;;;0.40;0.40;;;;;;;;;;5066562;28;20789;-66
2021/10/16 06:31:42;;;;;;;0.40;0.40;;;;;;;;;;5069878;28;20426;-65
2021/10/16 06:34:09;;;;;;;0.40;0.40;;;;;;;;;;5068778;28;20190;-65
2021/10/16 06:36:35;;;;;;;0.40;0.40;;;;;;;;;;5061321;28;20445;-64
2021/10/16 06:39:01;;;;;;;0.40;0.40;;;;;;;;;;5064518;28;20187;-66
2021/10/16 06:41:27;;;;;;;0.40;0.40;;;;;;;;;;5062697;28;20553;-65
2021/10/16 06:43:53;;;;;;;0.40;0.40;;;;;;;;;;5066140;28;20429;-65
2021/10/16 06:46:19;;;;;;;0.40;0.40;;;;;;;;;;5065667;28;20425;-63
2021/10/16 06:48:45;;;;;;;0.40;0.40;;;;;;;;;;5066138;28;21130;-65
2021/10/16 06:51:11;;;;;;;0.40;0.40;;;;;;;;;;5066458;28;20536;-64
2021/10/16 06:53:38;;;;;;;0.40;0.40;;;;;;;;;;5079330;28;20461;-63
2021/10/16 06:56:04;;;;;;;0.40;0.40;;;;;;;;;;5062916;28;20439;-63
2021/10/16 06:58:30;;;;;;;0.40;0.40;;;;;;;;;;5062811;28;20175;-63
2021/10/16 07:00:56;;;;;;;0.40;0.40;;;;;;;;;;5066027;28;20195;-63
2021/10/16 07:03:22;;;;;;;0.40;0.40;;;;;;;;;;5066320;28;20461;-64
2021/10/16 07:05:48;;;;;;;0.30;0.30;;;;;;;;;;5064474;28;20474;-64
2021/10/16 07:08:14;;;;;;;0.40;0.40;;;;;;;;;;5066801;28;20430;-65
2021/10/16 07:10:41;;;;;;;0.40;0.40;;;;;;;;;;5057444;28;20311;-63
2021/10/16 07:13:08;;;;;;;0.40;0.40;;;;;;;;;;5071587;28;20490;-64
2021/10/16 07:15:34;;;;;;;0.40;0.40;;;;;;;;;;5071037;28;20167;-64
2021/10/16 07:18:00;;;;;;;0.40;0.40;;;;;;;;;;5072017;28;20181;-64
2021/10/16 07:20:26;;;;;;;0.40;0.40;;;;;;;;;;5072118;28;20472;-64
2021/10/16 07:22:54;;;;;;;0.40;0.40;;;;;;;;;;5071259;28;20460;-63
2021/10/16 07:25:20;;;;;;;0.40;0.40;;;;;;;;;;5069859;28;20785;-63
2021/10/16 07:27:46;;;;;;;0.37;0.37;;;;;;;;;;5071018;28;20175;-63
2021/10/16 07:30:12;;;;;;;0.50;0.50;;;;;;;;;;5070750;28;21098;-64
2021/10/16 07:32:38;;;;;;;0.40;0.40;;;;;;;;;;5070958;28;20424;-64
2021/10/16 07:35:04;;;;;;;0.40;0.40;;;;;;;;;;5071474;28;20645;-64
2021/10/16 07:37:30;;;;;;;0.40;0.40;;;;;;;;;;5071326;28;20447;-64
2021/10/16 07:39:56;;;;;;;0.40;0.40;;;;;;;;;;5070974;28;20681;-64
2021/10/16 07:42:22;;;;;;;0.40;0.40;;;;;;;;;;5068669;28;20461;-64
2021/10/16 07:44:48;;;;;;;0.40;0.40;;;;;;;;;;5055120;28;20180;-64
2021/10/16 07:47:14;;;;;;;0.40;0.40;;;;;;;;;;5050979;28;20457;-64
2021/10/16 07:49:40;;;;;;;0.40;0.40;;;;;;;;;;5061131;28;20203;-63
2021/10/16 07:52:06;;;;;;;0.40;0.40;;;;;;;;;;5069836;28;20447;-63
2021/10/16 07:54:31;;;;;;;0.40;0.40;;;;;;;;;;5070343;28;20418;-64
2021/10/16 07:57:01;;;;;;;0.40;0.40;;;;;;;;;;5071548;28;20417;-64
2021/10/16 07:59:27;;;;;;;0.30;0.30;;;;;;;;;;5073532;28;20449;-64
2021/10/16 08:01:53;;;;;;;0.37;0.37;;;;;;;;;;5072622;28;20203;-64
2021/10/16 08:04:19;;;;;;;0.40;0.40;;;;;;;;;;5074364;28;20966;-65
2021/10/16 08:06:45;;;;;;;0.40;0.40;;;;;;;;;;5073742;28;20409;-64
2021/10/16 08:09:11;;;;;;;0.40;0.40;;;;;;;;;;5075019;28;20459;-64
2021/10/16 08:11:37;;;;;;;0.40;0.40;;;;;;;;;;5073978;28;20777;-64
2021/10/16 08:14:03;;;;;;;0.40;0.40;;;;;;;;;;5074743;28;20433;-64
2021/10/16 08:16:29;;;;;;;0.30;0.30;;;;;;;;;;5075008;28;20398;-64
2021/10/16 08:18:55;;;;;;;0.40;0.40;;;;;;;;;;5075230;28;20175;-63
2021/10/16 08:21:21;;;;;;;0.40;0.40;;;;;;;;;;5068154;28;20608;-64
2021/10/16 08:23:47;;;;;;;0.30;0.30;;;;;;;;;;5074158;28;20183;-64
2021/10/16 08:26:13;;;;;;;0.40;0.40;;;;;;;;;;5072911;28;20176;-64
2021/10/16 08:28:39;;;;;;;0.40;0.40;;;;;;;;;;5074189;28;20500;-63
2021/10/16 08:31:05;;;;;;;0.30;0.30;;;;;;;;;;5073737;28;20226;-65
2021/10/16 08:33:34;;;;;;;0.40;0.40;;;;;;;;;;5070912;28;20416;-65
2021/10/16 08:36:01;;;;;;;0.40;0.40;;;;;;;;;;5070143;28;20611;-65
2021/10/16 08:38:27;;;;;;;0.40;0.40;;;;;;;;;;5074047;28;20655;-65
2021/10/16 08:40:53;;;;;;;0.40;0.40;;;;;;;;;;5074046;28;20638;-64
2021/10/16 08:43:19;;;;;;;0.40;0.40;;;;;;;;;;5072328;28;20238;-65
2021/10/16 08:45:46;;;;;;;0.40;0.40;;;;;;;;;;5071535;28;20440;-64
2021/10/16 08:48:15;;;;;;;0.30;0.30;;;;;;;;;;5070006;28;20195;-64
2021/10/16 08:50:41;;;;;;;0.40;0.40;;;;;;;;;;5071815;28;20332;-64
2021/10/16 08:53:07;;;;;;;0.40;0.40;;;;;;;;;;5070939;28;20595;-65
2021/10/16 08:55:33;;;;;;;0.40;0.40;;;;;;;;;;5069844;28;20186;-64
2021/10/16 08:57:59;;;;;;;0.40;0.40;;;;;;;;;;5071563;28;20432;-65
2021/10/16 09:00:53;;;;;;;0.40;0.40;;;;;;;;;;5070560;28;20460;-65
2021/10/16 09:03:22;;;;;;;0.40;0.40;;;;;;;;;;5074499;28;20551;-65
2021/10/16 09:06:05;;;;;;;0.38;0.38;;;;;;;;;;5073933;28;20172;-65
2021/10/16 09:08:32;;;;;;;0.40;0.40;;;;;;;;;;5071963;28;20210;-64
2021/10/16 09:11:17;;;;;;;0.40;0.40;;;;;;;;;;5071784;28;20202;-65
2021/10/16 09:13:43;;;;;;;0.40;0.40;;;;;;;;;;5054300;28;20176;-65
2021/10/16 09:16:18;;;;;;;0.40;0.40;;;;;;;;;;5054195;28;20712;-64
2021/10/16 09:18:54;;;;;;;0.40;0.40;;;;;;;;;;5072378;28;20413;-64
2021/10/16 09:21:25;;;;;;;0.40;0.40;;;;;;;;;;5073530;28;20658;-64
2021/10/16 09:24:08;;;;;;;0.35;0.35;;;;;;;;;;5077578;28;20175;-65
2021/10/16 09:26:35;;;;;;;0.40;0.40;;;;;;;;;;5072443;28;20571;-64
2021/10/16 09:29:02;;;;;;;0.40;0.40;;;;;;;;;;5079097;28;20593;-64
2021/10/16 09:31:35;;;;;;;0.40;0.40;;;;;;;;;;5075268;28;20206;-64
2021/10/16 09:34:02;;;;;;;0.40;0.40;;;;;;;;;;5073219;28;20265;-65
2021/10/16 09:36:30;;;;;;;0.40;0.40;;;;;;;;;;5073597;28;20168;-64
2021/10/16 09:38:56;;;;;;;0.40;0.40;;;;;;;;;;5073044;28;20189;-65
2021/10/16 09:41:27;;;;;;;0.40;0.40;;;;;;;;;;5072916;28;20272;-65
2021/10/16 09:43:53;;;;;;;0.40;0.40;;;;;;;;;;5073238;28;20186;-65
2021/10/16 09:46:19;;;;;;;0.40;0.40;;;;;;;;;;5071998;28;20171;-65
2021/10/16 09:48:46;;;;;;;0.40;0.40;;;;;;;;;;5058253;28;20183;-65
2021/10/16 09:51:14;;;;;;;0.40;0.40;;;;;;;;;;5069146;28;20191;-65
2021/10/16 09:53:41;;;;;;;0.40;0.40;;;;;;;;;;5069714;28;20175;-65
2021/10/16 09:56:07;;;;;;;0.40;0.40;;;;;;;;;;5069774;28;20221;-65
2021/10/16 09:58:33;;;;;;;0.40;0.40;;;;;;;;;;5070495;28;20259;-65
2021/10/16 10:00:59;;;;;;;0.40;0.40;;;;;;;;;;5070984;28;20274;-64
2021/10/16 10:03:27;;;;;;;0.40;0.40;;;;;;;;;;5072373;28;20585;-65
2021/10/16 10:05:53;;;;;;;0.40;0.40;;;;;;;;;;5075438;28;20221;-65
2021/10/16 10:08:19;;;;;;;0.40;0.40;;;;;;;;;;5072834;28;20179;-65
2021/10/16 10:10:47;;;;;;;0.40;0.40;;;;;;;;;;5071715;28;20203;-65
2021/10/16 10:13:13;;;;;;;0.40;0.40;;;;;;;;;;5073033;28;20443;-65
2021/10/16 10:15:39;;;;;;;0.40;0.40;;;;;;;;;;5071947;28;20189;-64
2021/10/16 10:20:51;;;;;;;0.40;0.40;;;;;;;;;;5068725;28;20851;-65
2021/10/16 10:23:21;;;;;;;0.30;0.30;;;;;;;;;;5071390;28;20203;-65
2021/10/16 10:25:47;;;;;;;0.30;0.30;;;;;;;;;;5063640;28;20202;-65
2021/10/16 10:28:13;;;;;;;0.40;0.40;;;;;;;;;;5071476;28;20206;-64
2021/10/16 10:30:40;;;;;;;0.40;0.40;;;;;;;;;;5071620;28;21090;-65
2021/10/16 10:33:15;;;;;;;0.40;0.40;;;;;;;;;;5072577;28;20262;-65
2021/10/16 10:35:47;;;;;;;0.40;0.40;;;;;;;;;;5072485;28;20213;-65
2021/10/16 10:38:28;;;;;;;0.40;0.40;;;;;;;;;;5072441;28;20189;-65
2021/10/16 10:40:54;;;;;;;0.30;0.30;;;;;;;;;;5071535;28;20729;-65
2021/10/16 10:43:39;;;;;;;0.30;0.30;;;;;;;;;;5071997;28;20457;-65
2021/10/16 10:46:12;;;;;;;0.40;0.40;;;;;;;;;;5071644;28;20405;-65
2021/10/16 10:48:48;;;;;;;0.30;0.30;;;;;;;;;;5071037;28;20461;-65
2021/10/16 10:51:28;;;;;;;0.40;0.40;;;;;;;;;;5067843;28;20260;-65
2021/10/16 10:54:16;;;;;;;0.30;0.30;;;;;;;;;;5067608;28;20451;-65
2021/10/16 10:56:44;;;;;;;0.30;0.30;;;;;;;;;;5056800;28;20463;-65
2021/10/16 10:59:13;;;;;;;0.40;0.40;;;;;;;;;;5072148;28;20990;-65
2021/10/16 11:01:42;;;;;;;0.30;0.30;;;;;;;;;;5069522;28;20199;-64
2021/10/16 11:04:08;;;;;;;0.40;0.40;;;;;;;;;;5074001;28;20419;-65
2021/10/16 11:06:34;;;;;;;0.30;0.30;;;;;;;;;;5071745;28;20423;-64
2021/10/16 11:09:14;;;;;;;0.40;0.40;;;;;;;;;;5070522;28;20449;-66
2021/10/16 11:11:52;;;;;;;0.30;0.30;;;;;;;;;;5064446;28;20183;-65
2021/10/16 11:14:18;;;;;;;0.30;0.30;;;;;;;;;;5072666;28;20479;-65
2021/10/16 11:16:54;;;;;;;0.30;0.30;;;;;;;;;;5067324;28;20190;-66
2021/10/16 11:19:20;;;;;;;0.30;0.30;;;;;;;;;;5062574;28;20200;-66
2021/10/16 11:21:56;;;;;;;0.30;0.30;;;;;;;;;;5068724;28;20459;-65
2021/10/16 11:24:23;;;;;;;0.40;0.40;;;;;;;;;;5063881;28;20433;-65
2021/10/16 11:26:53;;;;;;;0.30;0.30;;;;;;;;;;5062090;28;20430;-65
2021/10/16 11:29:29;;;;;;;0.30;0.30;;;;;;;;;;5061813;28;20791;-65
2021/10/16 11:32:14;;;;;;;0.40;0.40;;;;;;;;;;5068396;28;20184;-65
2021/10/16 11:34:40;;;;;;;0.30;0.30;;;;;;;;;;5066346;28;20582;-65
2021/10/16 11:37:06;;;;;;;0.30;0.30;;;;;;;;;;5063713;28;20185;-65
2021/10/16 11:39:35;;;;;;;0.30;0.30;;;;;;;;;;5065327;28;20699;-66
2021/10/16 11:42:01;;;;;;;0.30;0.30;;;;;;;;;;5061250;28;20879;-66
2021/10/16 11:44:27;;;;;;;0.30;0.30;;;;;;;;;;5060628;28;20436;-65
2021/10/16 11:47:01;;;;;;;0.40;0.40;;;;;;;;;;5068233;28;20423;-65
2021/10/16 11:49:28;;;;;;;0.30;0.30;;;;;;;;;;5070852;28;20505;-65
2021/10/16 11:51:54;;;;;;;0.30;0.30;;;;;;;;;;5067292;28;20985;-65
2021/10/16 11:54:20;;;;;;;0.30;0.30;;;;;;;;;;5069790;28;20417;-65
2021/10/16 11:56:54;;;;;;;0.30;0.30;;;;;;;;;;5069640;28;20441;-64
2021/10/16 11:59:20;;;;;;;0.30;0.30;;;;;;;;;;5051397;28;20449;-65
2021/10/16 12:01:46;;;;;;;0.30;0.30;;;;;;;;;;5065525;28;20540;-65
2021/10/16 12:04:12;;;;;;;0.30;0.30;;;;;;;;;;5071025;28;20501;-65
2021/10/16 12:06:38;;;;;;;0.30;0.30;;;;;;;;;;5070425;28;20484;-65
2021/10/16 12:09:04;;;;;;;0.30;0.30;;;;;;;;;;5070274;28;20766;-65
2021/10/16 12:11:31;;;;;;;0.30;0.30;;;;;;;;;;5091409;22;20481;-66
2021/10/16 12:13:57;;;;;;;0.30;0.30;;;;;;;;;;5068699;28;20496;-66
2021/10/16 12:16:24;;;;;;;0.30;0.30;;;;;;;;;;5069064;28;20483;-67
2021/10/16 12:18:56;;;;;;;0.30;0.20;;;;;;;;;;5070148;28;20917;-65
2021/10/16 12:21:32;;;;;;;0.30;0.30;;;;;;;;;;5055423;28;20824;-66
2021/10/16 12:24:00;;;;;;;0.30;0.30;;;;;;;;;;5072765;28;20426;-66
2021/10/16 12:26:29;;;;;;;0.30;0.30;;;;;;;;;;5069189;28;20898;-67
2021/10/16 12:28:55;;;;;;;0.30;0.20;;;;;;;;;;5071333;28;21006;-66
2021/10/16 12:31:21;;;;;;;0.20;0.20;;;;;;;;;;5070578;28;20852;-66
2021/10/16 12:34:03;;;;;;;0.20;0.20;;;;;;;;;;5050866;28;20418;-67
2021/10/16 12:36:49;;;;;;;0.20;0.20;;;;;;;;;;5067025;28;20417;-66
2021/10/16 12:39:23;;;;;;;0.30;0.30;;;;;;;;;;5058522;28;20396;-67
2021/10/16 12:41:49;;;;;;;0.30;0.30;;;;;;;;;;5073048;28;20461;-67
2021/10/16 12:44:22;;;;;;;0.30;0.30;;;;;;;;;;5076996;28;20424;-67
2021/10/16 12:47:06;;;;;;;0.20;0.20;;;;;;;;;;5071332;28;20417;-66
2021/10/16 12:49:34;;;;;;;0.30;0.30;;;;;;;;;;5075751;28;20409;-67
2021/10/16 12:52:00;;;;;;;0.20;0.20;;;;;;;;;;5070640;28;20835;-68
2021/10/16 12:54:34;;;;;;;0.20;0.20;;;;;;;;;;5053966;28;20421;-67
2021/10/16 12:57:10;;;;;;;0.30;0.30;;;;;;;;;;5055581;28;20949;-66
2021/10/16 12:59:37;;;;;;;0.30;0.30;;;;;;;;;;5055029;28;20414;-66
2021/10/16 13:02:03;;;;;;;0.30;0.30;;;;;;;;;;5071964;28;20458;-66
2021/10/16 13:04:29;;;;;;;0.30;0.30;;;;;;;;;;5056004;28;20403;-65
2021/10/16 13:06:55;;;;;;;0.30;0.30;;;;;;;;;;5068080;28;20513;-66
2021/10/16 13:09:21;;;;;;;0.30;0.30;;;;;;;;;;5074669;28;20542;-66
2021/10/16 13:11:47;;;;;;;0.30;0.30;;;;;;;;;;5054109;28;20502;-65
2021/10/16 13:14:13;;;;;;;0.30;0.30;;;;;;;;;;5072069;28;20482;-65
2021/10/16 13:16:39;;;;;;;0.30;0.30;;;;;;;;;;5074473;28;20427;-66
2021/10/16 13:19:05;;;;;;;0.30;0.30;;;;;;;;;;5074446;28;20432;-66
2021/10/16 13:21:31;;;;;;;0.40;0.40;;;;;;;;;;5056276;28;20519;-66
2021/10/16 13:23:57;;;;;;;0.30;0.30;;;;;;;;;;5073151;28;20400;-67
2021/10/16 13:26:23;;;;;;;0.40;0.40;;;;;;;;;;5075061;28;20472;-66
2021/10/16 13:28:49;;;;;;;0.30;0.30;;;;;;;;;;5070812;28;20422;-67
2021/10/16 13:31:15;;;;;;;0.30;0.30;;;;;;;;;;5071585;28;20619;-65
2021/10/16 13:33:41;;;;;;;0.30;0.30;;;;;;;;;;5068237;28;20433;-67
2021/10/16 13:36:07;;;;;;;0.40;0.40;;;;;;;;;;5070526;28;20191;-66
2021/10/16 13:38:33;;;;;;;0.40;0.40;;;;;;;;;;5071120;28;20516;-66
2021/10/16 13:40:59;;;;;;;0.30;0.30;;;;;;;;;;5071852;28;20446;-67
2021/10/16 13:43:25;;;;;;;0.30;0.30;;;;;;;;;;5074270;28;20453;-66
2021/10/16 13:45:51;;;;;;;0.30;0.30;;;;;;;;;;5075957;28;20427;-67
2021/10/16 13:48:17;;;;;;;0.43;0.43;;;;;;;;;;5073411;28;20401;-66
2021/10/16 13:50:43;;;;;;;0.30;0.30;;;;;;;;;;5090120;28;20527;-67
2021/10/16 13:53:09;;;;;;;0.30;0.30;;;;;;;;;;5083427;28;20404;-66
2021/10/16 13:55:35;;;;;;;0.30;0.30;;;;;;;;;;5062363;28;20936;-66
2021/10/16 13:58:01;;;;;;;0.30;0.30;;;;;;;;;;5073292;28;20420;-67
2021/10/16 14:00:27;;;;;;;0.30;0.30;;;;;;;;;;5082934;28;20995;-66
2021/10/16 14:02:53;;;;;;;0.30;0.30;;;;;;;;;;5083215;28;20463;-66
2021/10/16 14:05:19;;;;;;;0.30;0.30;;;;;;;;;;5078573;28;20425;-66
2021/10/16 14:07:45;;;;;;;0.40;0.40;;;;;;;;;;5082469;28;20453;-67
2021/10/16 14:10:10;;;;;;;0.30;0.30;;;;;;;;;;5073448;28;20448;-66
2021/10/16 14:12:36;;;;;;;0.30;0.30;;;;;;;;;;5077460;28;20447;-67
2021/10/16 14:15:02;;;;;;;0.30;0.30;;;;;;;;;;5089075;28;20425;-67
2021/10/16 14:17:28;;;;;;;0.30;0.30;;;;;;;;;;5072204;28;20426;-66
2021/10/16 14:19:54;;;;;;;0.30;0.30;;;;;;;;;;5075980;28;20812;-66
2021/10/16 14:22:20;;;;;;;0.30;0.30;;;;;;;;;;5069743;28;20483;-66
2021/10/16 14:24:46;;;;;;;0.30;0.30;;;;;;;;;;5065162;28;20404;-67
2021/10/16 14:27:12;;;;;;;0.30;0.30;;;;;;;;;;5063808;28;20483;-66
2021/10/16 14:29:38;;;;;;;0.30;0.30;;;;;;;;;;5066413;28;20451;-67
2021/10/16 14:32:04;;;;;;;0.30;0.30;;;;;;;;;;5068565;28;20483;-67
2021/10/16 14:34:30;;;;;;;0.30;0.30;;;;;;;;;;5065233;28;20433;-66
2021/10/16 14:36:57;;;;;;;0.30;0.30;;;;;;;;;;5062867;28;20954;-66
2021/10/16 14:39:23;;;;;;;0.30;0.30;;;;;;;;;;5065565;28;20449;-67
2021/10/16 14:41:49;;;;;;;0.30;0.30;;;;;;;;;;5065199;28;20469;-67
2021/10/16 14:44:15;;;;;;;0.30;0.30;;;;;;;;;;5064411;28;20422;-66
2021/10/16 14:46:41;;;;;;;0.30;0.30;;;;;;;;;;5066319;28;20487;-67